sensor_id;sensor_type;location;lat;lon;timestamp;P1;durP1;ratioP1;P2;durP2;ratioP2
37655;SDS011;23498;50.958;3.124;2023-05-29T00:02:10;28.55;;;10.52;;
37655;SDS011;23498;50.958;3.124;2023-05-29T00:04:36;22.85;;;10.23;;
37655;SDS011;23498;50.958;3.124;2023-05-29T00:07:02;25.30;;;10.52;;
37655;SDS011;23498;50.958;3.124;2023-05-29T00:09:28;23.13;;;9.77;;
37655;SDS011;23498;50.958;3.124;2023-05-29T00:11:54;19.23;;;9.48;;
37655;SDS011;23498;50.958;3.124;2023-05-29T00:14:21;20.70;;;10.70;;
37655;SDS011;23498;50.958;3.124;2023-05-29T00:16:48;23.52;;;10.57;;
37655;SDS011;23498;50.958;3.124;2023-05-29T00:19:15;24.08;;;10.65;;
37655;SDS011;23498;50.958;3.124;2023-05-29T00:21:48;19.75;;;10.45;;
37655;SDS011;23498;50.958;3.124;2023-05-29T00:24:15;19.42;;;10.68;;
37655;SDS011;23498;50.958;3.124;2023-05-29T00:26:41;21.25;;;10.90;;
37655;SDS011;23498;50.958;3.124;2023-05-29T00:29:07;20.50;;;10.13;;
37655;SDS011;23498;50.958;3.124;2023-05-29T00:31:34;20.02;;;10.73;;
37655;SDS011;23498;50.958;3.124;2023-05-29T00:34:01;21.73;;;10.10;;
37655;SDS011;23498;50.958;3.124;2023-05-29T00:36:27;18.25;;;9.38;;
37655;SDS011;23498;50.958;3.124;2023-05-29T00:38:54;21.20;;;9.45;;
37655;SDS011;23498;50.958;3.124;2023-05-29T00:41:20;18.30;;;8.68;;
37655;SDS011;23498;50.958;3.124;2023-05-29T00:43:46;19.17;;;9.13;;
37655;SDS011;23498;50.958;3.124;2023-05-29T00:46:13;21.27;;;8.60;;
37655;SDS011;23498;50.958;3.124;2023-05-29T00:48:39;16.50;;;7.50;;
37655;SDS011;23498;50.958;3.124;2023-05-29T00:51:06;14.95;;;7.93;;
37655;SDS011;23498;50.958;3.124;2023-05-29T00:53:32;14.90;;;7.20;;
37655;SDS011;23498;50.958;3.124;2023-05-29T00:55:58;18.08;;;7.60;;
37655;SDS011;23498;50.958;3.124;2023-05-29T00:58:25;20.60;;;7.38;;
37655;SDS011;23498;50.958;3.124;2023-05-29T01:00:51;15.75;;;7.32;;
37655;SDS011;23498;50.958;3.124;2023-05-29T01:03:18;19.02;;;7.70;;
37655;SDS011;23498;50.958;3.124;2023-05-29T01:05:44;19.63;;;7.50;;
37655;SDS011;23498;50.958;3.124;2023-05-29T01:08:11;14.95;;;6.72;;
37655;SDS011;23498;50.958;3.124;2023-05-29T01:10:38;19.73;;;7.05;;
37655;SDS011;23498;50.958;3.124;2023-05-29T01:13:06;15.00;;;6.65;;
37655;SDS011;23498;50.958;3.124;2023-05-29T01:20:40;14.77;;;5.18;;
37655;SDS011;23498;50.958;3.124;2023-05-29T01:25:48;21.23;;;5.35;;
37655;SDS011;23498;50.958;3.124;2023-05-29T01:28:17;16.13;;;5.80;;
37655;SDS011;23498;50.958;3.124;2023-05-29T01:30:46;16.38;;;5.38;;
37655;SDS011;23498;50.958;3.124;2023-05-29T01:33:12;11.57;;;4.63;;
37655;SDS011;23498;50.958;3.124;2023-05-29T01:35:38;13.00;;;4.88;;
37655;SDS011;23498;50.958;3.124;2023-05-29T01:38:04;11.50;;;3.95;;
37655;SDS011;23498;50.958;3.124;2023-05-29T01:40:30;15.25;;;4.30;;
37655;SDS011;23498;50.958;3.124;2023-05-29T01:42:56;12.68;;;3.90;;
37655;SDS011;23498;50.958;3.124;2023-05-29T01:45:22;13.13;;;3.80;;
37655;SDS011;23498;50.958;3.124;2023-05-29T01:47:48;14.30;;;3.83;;
37655;SDS011;23498;50.958;3.124;2023-05-29T01:50:15;12.38;;;3.88;;
37655;SDS011;23498;50.958;3.124;2023-05-29T01:52:43;9.88;;;3.53;;
37655;SDS011;23498;50.958;3.124;2023-05-29T01:55:09;13.48;;;3.95;;
37655;SDS011;23498;50.958;3.124;2023-05-29T01:57:35;13.10;;;4.05;;
37655;SDS011;23498;50.958;3.124;2023-05-29T02:00:03;16.60;;;3.47;;
37655;SDS011;23498;50.958;3.124;2023-05-29T02:02:36;13.32;;;3.95;;
37655;SDS011;23498;50.958;3.124;2023-05-29T02:05:03;13.05;;;3.92;;
37655;SDS011;23498;50.958;3.124;2023-05-29T02:07:29;12.55;;;3.30;;
37655;SDS011;23498;50.958;3.124;2023-05-29T02:09:55;17.00;;;3.83;;
37655;SDS011;23498;50.958;3.124;2023-05-29T02:12:21;13.70;;;3.50;;
37655;SDS011;23498;50.958;3.124;2023-05-29T02:14:47;9.63;;;3.40;;
37655;SDS011;23498;50.958;3.124;2023-05-29T02:17:14;12.95;;;3.88;;
37655;SDS011;23498;50.958;3.124;2023-05-29T02:19:40;15.10;;;3.85;;
37655;SDS011;23498;50.958;3.124;2023-05-29T02:22:06;13.68;;;3.38;;
37655;SDS011;23498;50.958;3.124;2023-05-29T02:24:32;11.55;;;3.63;;
37655;SDS011;23498;50.958;3.124;2023-05-29T02:26:58;12.68;;;3.38;;
37655;SDS011;23498;50.958;3.124;2023-05-29T02:29:25;14.10;;;3.58;;
37655;SDS011;23498;50.958;3.124;2023-05-29T02:31:51;8.95;;;3.45;;
37655;SDS011;23498;50.958;3.124;2023-05-29T02:34:17;11.60;;;3.85;;
37655;SDS011;23498;50.958;3.124;2023-05-29T02:36:43;10.15;;;3.83;;
37655;SDS011;23498;50.958;3.124;2023-05-29T02:39:09;10.60;;;3.72;;
37655;SDS011;23498;50.958;3.124;2023-05-29T02:41:36;11.80;;;4.07;;
37655;SDS011;23498;50.958;3.124;2023-05-29T02:44:02;14.10;;;3.70;;
37655;SDS011;23498;50.958;3.124;2023-05-29T02:46:28;13.48;;;4.15;;
37655;SDS011;23498;50.958;3.124;2023-05-29T02:48:54;11.40;;;3.80;;
37655;SDS011;23498;50.958;3.124;2023-05-29T02:51:20;14.15;;;3.92;;
37655;SDS011;23498;50.958;3.124;2023-05-29T02:53:46;13.85;;;3.50;;
37655;SDS011;23498;50.958;3.124;2023-05-29T02:56:13;14.43;;;3.42;;
37655;SDS011;23498;50.958;3.124;2023-05-29T02:58:41;11.75;;;3.78;;
37655;SDS011;23498;50.958;3.124;2023-05-29T03:01:07;11.43;;;3.65;;
37655;SDS011;23498;50.958;3.124;2023-05-29T03:03:34;17.67;;;4.38;;
37655;SDS011;23498;50.958;3.124;2023-05-29T03:06:00;13.20;;;3.50;;
37655;SDS011;23498;50.958;3.124;2023-05-29T03:08:27;14.30;;;3.72;;
37655;SDS011;23498;50.958;3.124;2023-05-29T03:10:53;10.77;;;3.42;;
37655;SDS011;23498;50.958;3.124;2023-05-29T03:13:19;13.25;;;4.22;;
37655;SDS011;23498;50.958;3.124;2023-05-29T03:15:45;12.82;;;3.67;;
37655;SDS011;23498;50.958;3.124;2023-05-29T03:18:12;14.82;;;3.95;;
37655;SDS011;23498;50.958;3.124;2023-05-29T03:20:38;14.05;;;3.80;;
37655;SDS011;23498;50.958;3.124;2023-05-29T03:23:04;12.73;;;3.97;;
37655;SDS011;23498;50.958;3.124;2023-05-29T03:25:30;14.10;;;3.95;;
37655;SDS011;23498;50.958;3.124;2023-05-29T03:27:56;12.63;;;3.60;;
37655;SDS011;23498;50.958;3.124;2023-05-29T03:30:22;10.05;;;3.80;;
37655;SDS011;23498;50.958;3.124;2023-05-29T03:32:48;14.90;;;3.72;;
37655;SDS011;23498;50.958;3.124;2023-05-29T03:35:14;10.18;;;3.95;;
37655;SDS011;23498;50.958;3.124;2023-05-29T03:37:40;12.73;;;3.80;;
37655;SDS011;23498;50.958;3.124;2023-05-29T03:40:06;12.07;;;3.85;;
37655;SDS011;23498;50.958;3.124;2023-05-29T03:42:33;14.32;;;3.80;;
37655;SDS011;23498;50.958;3.124;2023-05-29T03:44:59;15.73;;;4.13;;
37655;SDS011;23498;50.958;3.124;2023-05-29T03:47:25;14.30;;;4.45;;
37655;SDS011;23498;50.958;3.124;2023-05-29T03:49:51;8.95;;;3.83;;
37655;SDS011;23498;50.958;3.124;2023-05-29T03:52:17;15.02;;;4.03;;
37655;SDS011;23498;50.958;3.124;2023-05-29T03:54:43;13.48;;;4.00;;
37655;SDS011;23498;50.958;3.124;2023-05-29T03:57:09;14.45;;;3.78;;
37655;SDS011;23498;50.958;3.124;2023-05-29T03:59:35;14.55;;;4.47;;
37655;SDS011;23498;50.958;3.124;2023-05-29T04:02:02;15.23;;;4.00;;
37655;SDS011;23498;50.958;3.124;2023-05-29T04:04:28;17.92;;;4.00;;
37655;SDS011;23498;50.958;3.124;2023-05-29T04:06:54;18.17;;;3.95;;
37655;SDS011;23498;50.958;3.124;2023-05-29T04:09:20;10.52;;;3.40;;
37655;SDS011;23498;50.958;3.124;2023-05-29T04:11:46;14.02;;;3.90;;
37655;SDS011;23498;50.958;3.124;2023-05-29T04:14:12;15.77;;;4.22;;
37655;SDS011;23498;50.958;3.124;2023-05-29T04:16:38;17.52;;;4.05;;
37655;SDS011;23498;50.958;3.124;2023-05-29T04:19:04;15.50;;;3.42;;
37655;SDS011;23498;50.958;3.124;2023-05-29T04:21:30;17.67;;;3.88;;
37655;SDS011;23498;50.958;3.124;2023-05-29T04:23:57;15.05;;;3.63;;
37655;SDS011;23498;50.958;3.124;2023-05-29T04:26:24;13.93;;;3.53;;
37655;SDS011;23498;50.958;3.124;2023-05-29T04:28:50;16.13;;;3.88;;
37655;SDS011;23498;50.958;3.124;2023-05-29T04:31:17;14.80;;;4.10;;
37655;SDS011;23498;50.958;3.124;2023-05-29T04:33:43;13.75;;;4.00;;
37655;SDS011;23498;50.958;3.124;2023-05-29T04:36:10;9.85;;;3.30;;
37655;SDS011;23498;50.958;3.124;2023-05-29T04:38:36;15.43;;;3.70;;
37655;SDS011;23498;50.958;3.124;2023-05-29T04:41:02;15.52;;;4.10;;
37655;SDS011;23498;50.958;3.124;2023-05-29T04:43:28;16.80;;;3.97;;
37655;SDS011;23498;50.958;3.124;2023-05-29T04:45:54;14.95;;;4.25;;
37655;SDS011;23498;50.958;3.124;2023-05-29T04:48:20;15.13;;;3.90;;
37655;SDS011;23498;50.958;3.124;2023-05-29T04:50:46;15.98;;;4.07;;
37655;SDS011;23498;50.958;3.124;2023-05-29T04:53:13;13.40;;;3.72;;
37655;SDS011;23498;50.958;3.124;2023-05-29T04:55:39;14.32;;;4.70;;
37655;SDS011;23498;50.958;3.124;2023-05-29T04:58:05;15.23;;;3.72;;
37655;SDS011;23498;50.958;3.124;2023-05-29T05:00:31;21.75;;;4.03;;
37655;SDS011;23498;50.958;3.124;2023-05-29T05:02:57;12.57;;;4.20;;
37655;SDS011;23498;50.958;3.124;2023-05-29T05:05:23;10.90;;;3.92;;
37655;SDS011;23498;50.958;3.124;2023-05-29T05:07:49;14.55;;;3.60;;
37655;SDS011;23498;50.958;3.124;2023-05-29T05:10:15;12.82;;;3.83;;
37655;SDS011;23498;50.958;3.124;2023-05-29T05:12:41;15.43;;;4.00;;
37655;SDS011;23498;50.958;3.124;2023-05-29T05:15:07;14.20;;;3.65;;
37655;SDS011;23498;50.958;3.124;2023-05-29T05:17:33;14.80;;;3.42;;
37655;SDS011;23498;50.958;3.124;2023-05-29T05:20:00;11.57;;;3.35;;
37655;SDS011;23498;50.958;3.124;2023-05-29T05:22:25;17.55;;;3.90;;
37655;SDS011;23498;50.958;3.124;2023-05-29T05:24:51;11.32;;;3.22;;
37655;SDS011;23498;50.958;3.124;2023-05-29T05:27:19;14.95;;;3.17;;
37655;SDS011;23498;50.958;3.124;2023-05-29T05:29:45;14.13;;;3.67;;
37655;SDS011;23498;50.958;3.124;2023-05-29T05:32:11;15.30;;;2.97;;
37655;SDS011;23498;50.958;3.124;2023-05-29T05:34:37;8.23;;;3.05;;
37655;SDS011;23498;50.958;3.124;2023-05-29T05:37:03;13.40;;;3.30;;
37655;SDS011;23498;50.958;3.124;2023-05-29T05:39:29;12.50;;;2.70;;
37655;SDS011;23498;50.958;3.124;2023-05-29T05:41:55;15.60;;;3.35;;
37655;SDS011;23498;50.958;3.124;2023-05-29T05:44:21;14.00;;;2.47;;
37655;SDS011;23498;50.958;3.124;2023-05-29T05:46:47;8.95;;;2.20;;
37655;SDS011;23498;50.958;3.124;2023-05-29T05:49:13;10.82;;;2.67;;
37655;SDS011;23498;50.958;3.124;2023-05-29T05:51:39;10.85;;;2.80;;
37655;SDS011;23498;50.958;3.124;2023-05-29T05:54:05;11.07;;;2.55;;
37655;SDS011;23498;50.958;3.124;2023-05-29T05:56:31;9.55;;;2.35;;
37655;SDS011;23498;50.958;3.124;2023-05-29T05:58:57;11.50;;;2.83;;
37655;SDS011;23498;50.958;3.124;2023-05-29T06:01:23;14.73;;;2.75;;
37655;SDS011;23498;50.958;3.124;2023-05-29T06:03:49;7.88;;;1.98;;
37655;SDS011;23498;50.958;3.124;2023-05-29T06:06:15;12.60;;;2.72;;
37655;SDS011;23498;50.958;3.124;2023-05-29T06:08:43;8.73;;;2.20;;
37655;SDS011;23498;50.958;3.124;2023-05-29T06:11:09;10.00;;;2.95;;
37655;SDS011;23498;50.958;3.124;2023-05-29T06:13:36;9.00;;;2.53;;
37655;SDS011;23498;50.958;3.124;2023-05-29T06:16:02;11.63;;;2.40;;
37655;SDS011;23498;50.958;3.124;2023-05-29T06:18:28;12.63;;;2.03;;
37655;SDS011;23498;50.958;3.124;2023-05-29T06:20:54;11.98;;;2.28;;
37655;SDS011;23498;50.958;3.124;2023-05-29T06:23:20;11.02;;;2.25;;
37655;SDS011;23498;50.958;3.124;2023-05-29T06:25:46;9.13;;;2.45;;
37655;SDS011;23498;50.958;3.124;2023-05-29T06:28:12;12.57;;;2.28;;
37655;SDS011;23498;50.958;3.124;2023-05-29T06:30:38;10.35;;;2.47;;
37655;SDS011;23498;50.958;3.124;2023-05-29T06:33:05;12.00;;;2.20;;
37655;SDS011;23498;50.958;3.124;2023-05-29T06:35:31;10.07;;;2.25;;
37655;SDS011;23498;50.958;3.124;2023-05-29T06:37:57;11.00;;;2.58;;
37655;SDS011;23498;50.958;3.124;2023-05-29T06:40:23;9.23;;;2.20;;
37655;SDS011;23498;50.958;3.124;2023-05-29T06:42:49;7.82;;;2.17;;
37655;SDS011;23498;50.958;3.124;2023-05-29T06:45:15;13.43;;;2.17;;
37655;SDS011;23498;50.958;3.124;2023-05-29T06:47:44;12.95;;;1.90;;
37655;SDS011;23498;50.958;3.124;2023-05-29T06:50:10;12.00;;;2.35;;
37655;SDS011;23498;50.958;3.124;2023-05-29T06:52:36;10.27;;;2.33;;
37655;SDS011;23498;50.958;3.124;2023-05-29T06:55:02;10.65;;;1.73;;
37655;SDS011;23498;50.958;3.124;2023-05-29T06:57:28;8.82;;;2.20;;
37655;SDS011;23498;50.958;3.124;2023-05-29T06:59:54;13.77;;;2.75;;
37655;SDS011;23498;50.958;3.124;2023-05-29T07:02:20;9.25;;;2.13;;
37655;SDS011;23498;50.958;3.124;2023-05-29T07:04:46;9.48;;;2.20;;
37655;SDS011;23498;50.958;3.124;2023-05-29T07:07:12;12.30;;;3.10;;
37655;SDS011;23498;50.958;3.124;2023-05-29T07:09:38;9.75;;;2.13;;
37655;SDS011;23498;50.958;3.124;2023-05-29T07:12:05;11.60;;;2.22;;
37655;SDS011;23498;50.958;3.124;2023-05-29T07:14:31;11.32;;;2.13;;
37655;SDS011;23498;50.958;3.124;2023-05-29T07:16:57;11.25;;;1.95;;
37655;SDS011;23498;50.958;3.124;2023-05-29T07:19:23;6.38;;;2.28;;
37655;SDS011;23498;50.958;3.124;2023-05-29T07:21:49;15.65;;;2.55;;
37655;SDS011;23498;50.958;3.124;2023-05-29T07:24:15;10.60;;;2.42;;
37655;SDS011;23498;50.958;3.124;2023-05-29T07:26:41;7.40;;;2.40;;
37655;SDS011;23498;50.958;3.124;2023-05-29T07:29:07;8.43;;;2.00;;
37655;SDS011;23498;50.958;3.124;2023-05-29T07:31:33;7.55;;;1.77;;
37655;SDS011;23498;50.958;3.124;2023-05-29T07:33:59;11.82;;;2.28;;
37655;SDS011;23498;50.958;3.124;2023-05-29T07:36:29;12.05;;;2.60;;
37655;SDS011;23498;50.958;3.124;2023-05-29T07:38:56;9.13;;;1.70;;
37655;SDS011;23498;50.958;3.124;2023-05-29T07:41:23;9.45;;;2.00;;
37655;SDS011;23498;50.958;3.124;2023-05-29T07:43:50;7.50;;;2.38;;
37655;SDS011;23498;50.958;3.124;2023-05-29T07:46:17;5.88;;;1.58;;
37655;SDS011;23498;50.958;3.124;2023-05-29T07:48:43;6.72;;;1.80;;
37655;SDS011;23498;50.958;3.124;2023-05-29T07:51:11;9.00;;;1.75;;
37655;SDS011;23498;50.958;3.124;2023-05-29T07:53:37;8.10;;;1.75;;
37655;SDS011;23498;50.958;3.124;2023-05-29T07:56:03;13.55;;;2.95;;
37655;SDS011;23498;50.958;3.124;2023-05-29T07:58:29;9.35;;;1.83;;
37655;SDS011;23498;50.958;3.124;2023-05-29T08:00:55;9.50;;;2.03;;
37655;SDS011;23498;50.958;3.124;2023-05-29T08:03:21;7.53;;;1.80;;
37655;SDS011;23498;50.958;3.124;2023-05-29T08:05:48;8.23;;;1.60;;
37655;SDS011;23498;50.958;3.124;2023-05-29T08:08:14;6.70;;;1.70;;
37655;SDS011;23498;50.958;3.124;2023-05-29T08:10:40;12.40;;;1.98;;
37655;SDS011;23498;50.958;3.124;2023-05-29T08:13:06;8.77;;;1.67;;
37655;SDS011;23498;50.958;3.124;2023-05-29T08:15:32;7.55;;;1.77;;
37655;SDS011;23498;50.958;3.124;2023-05-29T08:17:58;8.52;;;1.90;;
37655;SDS011;23498;50.958;3.124;2023-05-29T08:20:25;8.57;;;2.22;;
37655;SDS011;23498;50.958;3.124;2023-05-29T08:22:51;10.07;;;1.90;;
37655;SDS011;23498;50.958;3.124;2023-05-29T08:25:17;10.95;;;2.08;;
37655;SDS011;23498;50.958;3.124;2023-05-29T08:27:43;8.50;;;2.10;;
37655;SDS011;23498;50.958;3.124;2023-05-29T08:30:09;10.35;;;1.58;;
37655;SDS011;23498;50.958;3.124;2023-05-29T08:32:36;7.50;;;2.03;;
37655;SDS011;23498;50.958;3.124;2023-05-29T08:35:02;9.63;;;1.90;;
37655;SDS011;23498;50.958;3.124;2023-05-29T08:37:29;7.53;;;1.83;;
37655;SDS011;23498;50.958;3.124;2023-05-29T08:39:55;11.70;;;2.58;;
37655;SDS011;23498;50.958;3.124;2023-05-29T08:42:26;6.07;;;1.75;;
37655;SDS011;23498;50.958;3.124;2023-05-29T08:44:55;7.72;;;2.03;;
37655;SDS011;23498;50.958;3.124;2023-05-29T08:47:26;8.95;;;2.35;;
37655;SDS011;23498;50.958;3.124;2023-05-29T08:49:52;9.55;;;1.58;;
37655;SDS011;23498;50.958;3.124;2023-05-29T08:52:19;9.88;;;2.03;;
37655;SDS011;23498;50.958;3.124;2023-05-29T08:54:45;7.88;;;2.10;;
37655;SDS011;23498;50.958;3.124;2023-05-29T08:57:11;7.50;;;2.00;;
37655;SDS011;23498;50.958;3.124;2023-05-29T08:59:39;8.50;;;2.03;;
37655;SDS011;23498;50.958;3.124;2023-05-29T09:02:05;10.57;;;2.63;;
37655;SDS011;23498;50.958;3.124;2023-05-29T09:04:31;9.60;;;2.08;;
37655;SDS011;23498;50.958;3.124;2023-05-29T09:06:58;8.77;;;2.00;;
37655;SDS011;23498;50.958;3.124;2023-05-29T09:09:27;9.35;;;1.45;;
37655;SDS011;23498;50.958;3.124;2023-05-29T09:11:54;7.43;;;2.03;;
37655;SDS011;23498;50.958;3.124;2023-05-29T09:14:36;8.57;;;2.42;;
37655;SDS011;23498;50.958;3.124;2023-05-29T09:17:03;6.95;;;2.00;;
37655;SDS011;23498;50.958;3.124;2023-05-29T09:19:30;10.50;;;1.92;;
37655;SDS011;23498;50.958;3.124;2023-05-29T09:22:11;9.82;;;2.13;;
37655;SDS011;23498;50.958;3.124;2023-05-29T09:24:40;11.27;;;3.22;;
37655;SDS011;23498;50.958;3.124;2023-05-29T09:27:10;10.63;;;2.65;;
37655;SDS011;23498;50.958;3.124;2023-05-29T09:32:15;9.52;;;2.22;;
37655;SDS011;23498;50.958;3.124;2023-05-29T09:34:42;9.82;;;2.20;;
37655;SDS011;23498;50.958;3.124;2023-05-29T09:37:09;8.20;;;2.20;;
37655;SDS011;23498;50.958;3.124;2023-05-29T09:42:08;8.93;;;3.30;;
37655;SDS011;23498;50.958;3.124;2023-05-29T09:44:34;9.02;;;3.00;;
37655;SDS011;23498;50.958;3.124;2023-05-29T09:47:00;13.10;;;3.15;;
37655;SDS011;23498;50.958;3.124;2023-05-29T09:49:26;8.82;;;1.92;;
37655;SDS011;23498;50.958;3.124;2023-05-29T09:51:53;8.05;;;2.17;;
37655;SDS011;23498;50.958;3.124;2023-05-29T09:54:19;10.25;;;2.30;;
37655;SDS011;23498;50.958;3.124;2023-05-29T09:56:46;8.52;;;2.58;;
37655;SDS011;23498;50.958;3.124;2023-05-29T09:59:12;9.50;;;2.00;;
37655;SDS011;23498;50.958;3.124;2023-05-29T10:01:42;11.80;;;2.17;;
37655;SDS011;23498;50.958;3.124;2023-05-29T10:04:11;11.25;;;2.97;;
37655;SDS011;23498;50.958;3.124;2023-05-29T10:06:41;7.90;;;2.20;;
37655;SDS011;23498;50.958;3.124;2023-05-29T10:09:08;9.23;;;2.28;;
37655;SDS011;23498;50.958;3.124;2023-05-29T10:11:35;9.27;;;2.50;;
37655;SDS011;23498;50.958;3.124;2023-05-29T10:14:01;10.15;;;2.05;;
37655;SDS011;23498;50.958;3.124;2023-05-29T10:16:28;9.48;;;2.42;;
37655;SDS011;23498;50.958;3.124;2023-05-29T10:18:55;7.50;;;2.40;;
37655;SDS011;23498;50.958;3.124;2023-05-29T10:21:21;9.55;;;2.20;;
37655;SDS011;23498;50.958;3.124;2023-05-29T10:23:48;6.05;;;1.90;;
37655;SDS011;23498;50.958;3.124;2023-05-29T10:26:15;10.95;;;2.83;;
37655;SDS011;23498;50.958;3.124;2023-05-29T10:28:46;11.07;;;3.20;;
37655;SDS011;23498;50.958;3.124;2023-05-29T10:31:16;7.57;;;2.05;;
37655;SDS011;23498;50.958;3.124;2023-05-29T10:33:49;8.55;;;2.53;;
37655;SDS011;23498;50.958;3.124;2023-05-29T10:36:18;11.43;;;2.90;;
37655;SDS011;23498;50.958;3.124;2023-05-29T10:38:47;10.32;;;2.60;;
37655;SDS011;23498;50.958;3.124;2023-05-29T10:41:29;11.85;;;3.38;;
37655;SDS011;23498;50.958;3.124;2023-05-29T10:44:01;8.18;;;2.75;;
37655;SDS011;23498;50.958;3.124;2023-05-29T10:49:23;10.70;;;3.30;;
37655;SDS011;23498;50.958;3.124;2023-05-29T10:51:49;10.23;;;3.50;;
37655;SDS011;23498;50.958;3.124;2023-05-29T10:54:16;12.90;;;3.10;;
37655;SDS011;23498;50.958;3.124;2023-05-29T10:56:43;7.30;;;2.90;;
37655;SDS011;23498;50.958;3.124;2023-05-29T10:59:10;9.18;;;3.22;;
37655;SDS011;23498;50.958;3.124;2023-05-29T11:01:38;11.00;;;3.25;;
37655;SDS011;23498;50.958;3.124;2023-05-29T11:06:45;8.40;;;3.10;;
37655;SDS011;23498;50.958;3.124;2023-05-29T11:12:12;13.57;;;3.22;;
37655;SDS011;23498;50.958;3.124;2023-05-29T11:14:50;8.60;;;3.20;;
37655;SDS011;23498;50.958;3.124;2023-05-29T11:20:07;10.50;;;3.00;;
37655;SDS011;23498;50.958;3.124;2023-05-29T11:25:03;9.55;;;3.33;;
37655;SDS011;23498;50.958;3.124;2023-05-29T11:27:30;6.43;;;2.97;;
37655;SDS011;23498;50.958;3.124;2023-05-29T11:29:56;5.38;;;2.65;;
37655;SDS011;23498;50.958;3.124;2023-05-29T11:32:22;8.15;;;3.83;;
37655;SDS011;23498;50.958;3.124;2023-05-29T11:34:51;8.27;;;2.83;;
37655;SDS011;23498;50.958;3.124;2023-05-29T11:37:17;10.05;;;3.67;;
37655;SDS011;23498;50.958;3.124;2023-05-29T11:39:45;7.00;;;2.90;;
37655;SDS011;23498;50.958;3.124;2023-05-29T11:42:11;10.70;;;3.50;;
37655;SDS011;23498;50.958;3.124;2023-05-29T11:44:37;9.93;;;3.10;;
37655;SDS011;23498;50.958;3.124;2023-05-29T11:47:04;10.50;;;3.38;;
37655;SDS011;23498;50.958;3.124;2023-05-29T11:49:30;7.55;;;3.10;;
37655;SDS011;23498;50.958;3.124;2023-05-29T11:54:33;8.80;;;2.75;;
37655;SDS011;23498;50.958;3.124;2023-05-29T11:57:00;8.82;;;2.90;;
37655;SDS011;23498;50.958;3.124;2023-05-29T11:59:29;8.88;;;2.90;;
37655;SDS011;23498;50.958;3.124;2023-05-29T12:01:55;7.60;;;2.90;;
37655;SDS011;23498;50.958;3.124;2023-05-29T12:04:21;7.35;;;2.80;;
37655;SDS011;23498;50.958;3.124;2023-05-29T12:06:47;6.72;;;2.90;;
37655;SDS011;23498;50.958;3.124;2023-05-29T12:09:23;9.48;;;2.83;;
37655;SDS011;23498;50.958;3.124;2023-05-29T12:11:50;10.23;;;3.45;;
37655;SDS011;23498;50.958;3.124;2023-05-29T12:14:16;7.82;;;2.40;;
37655;SDS011;23498;50.958;3.124;2023-05-29T12:16:42;8.00;;;2.67;;
37655;SDS011;23498;50.958;3.124;2023-05-29T12:19:08;8.30;;;2.75;;
37655;SDS011;23498;50.958;3.124;2023-05-29T12:21:34;9.15;;;3.35;;
37655;SDS011;23498;50.958;3.124;2023-05-29T12:24:02;9.48;;;2.72;;
37655;SDS011;23498;50.958;3.124;2023-05-29T12:26:28;10.95;;;3.22;;
37655;SDS011;23498;50.958;3.124;2023-05-29T12:28:55;9.05;;;2.70;;
37655;SDS011;23498;50.958;3.124;2023-05-29T12:31:27;5.80;;;2.40;;
37655;SDS011;23498;50.958;3.124;2023-05-29T12:33:54;8.15;;;2.85;;
37655;SDS011;23498;50.958;3.124;2023-05-29T12:36:25;6.22;;;2.20;;
37655;SDS011;23498;50.958;3.124;2023-05-29T12:38:51;9.77;;;3.00;;
37655;SDS011;23498;50.958;3.124;2023-05-29T12:41:21;6.50;;;2.20;;
37655;SDS011;23498;50.958;3.124;2023-05-29T12:43:47;6.72;;;2.20;;
37655;SDS011;23498;50.958;3.124;2023-05-29T12:46:13;10.07;;;2.60;;
37655;SDS011;23498;50.958;3.124;2023-05-29T12:48:39;8.80;;;2.80;;
37655;SDS011;23498;50.958;3.124;2023-05-29T12:51:05;6.20;;;2.60;;
37655;SDS011;23498;50.958;3.124;2023-05-29T12:53:33;7.75;;;2.83;;
37655;SDS011;23498;50.958;3.124;2023-05-29T12:55:59;6.60;;;2.25;;
37655;SDS011;23498;50.958;3.124;2023-05-29T12:58:26;7.90;;;2.70;;
37655;SDS011;23498;50.958;3.124;2023-05-29T13:00:52;8.93;;;2.95;;
37655;SDS011;23498;50.958;3.124;2023-05-29T13:03:22;8.50;;;2.42;;
37655;SDS011;23498;50.958;3.124;2023-05-29T13:05:49;10.55;;;2.42;;
37655;SDS011;23498;50.958;3.124;2023-05-29T13:08:15;7.75;;;3.05;;
37655;SDS011;23498;50.958;3.124;2023-05-29T13:10:41;11.38;;;2.88;;
37655;SDS011;23498;50.958;3.124;2023-05-29T13:13:07;5.82;;;2.13;;
37655;SDS011;23498;50.958;3.124;2023-05-29T13:15:34;12.70;;;2.55;;
37655;SDS011;23498;50.958;3.124;2023-05-29T13:18:00;9.75;;;2.40;;
37655;SDS011;23498;50.958;3.124;2023-05-29T13:20:26;8.93;;;2.33;;
37655;SDS011;23498;50.958;3.124;2023-05-29T13:22:53;6.88;;;2.17;;
37655;SDS011;23498;50.958;3.124;2023-05-29T13:25:19;6.32;;;2.38;;
37655;SDS011;23498;50.958;3.124;2023-05-29T13:27:46;7.28;;;2.10;;
37655;SDS011;23498;50.958;3.124;2023-05-29T13:30:13;9.95;;;2.70;;
37655;SDS011;23498;50.958;3.124;2023-05-29T13:32:40;9.93;;;2.33;;
37655;SDS011;23498;50.958;3.124;2023-05-29T13:35:06;7.32;;;2.40;;
37655;SDS011;23498;50.958;3.124;2023-05-29T13:37:32;8.05;;;2.15;;
37655;SDS011;23498;50.958;3.124;2023-05-29T13:39:58;9.73;;;2.38;;
37655;SDS011;23498;50.958;3.124;2023-05-29T13:42:25;8.63;;;2.65;;
37655;SDS011;23498;50.958;3.124;2023-05-29T13:44:51;7.70;;;2.17;;
37655;SDS011;23498;50.958;3.124;2023-05-29T13:47:17;10.02;;;2.58;;
37655;SDS011;23498;50.958;3.124;2023-05-29T13:49:43;8.80;;;2.92;;
37655;SDS011;23498;50.958;3.124;2023-05-29T13:52:09;7.68;;;2.38;;
37655;SDS011;23498;50.958;3.124;2023-05-29T13:54:35;8.43;;;2.47;;
37655;SDS011;23498;50.958;3.124;2023-05-29T13:57:02;11.55;;;2.70;;
37655;SDS011;23498;50.958;3.124;2023-05-29T13:59:28;10.77;;;2.92;;
37655;SDS011;23498;50.958;3.124;2023-05-29T14:01:54;15.40;;;4.95;;
37655;SDS011;23498;50.958;3.124;2023-05-29T14:04:20;10.15;;;2.90;;
37655;SDS011;23498;50.958;3.124;2023-05-29T14:06:46;10.38;;;2.20;;
37655;SDS011;23498;50.958;3.124;2023-05-29T14:09:12;8.88;;;2.28;;
37655;SDS011;23498;50.958;3.124;2023-05-29T14:11:39;10.88;;;2.83;;
37655;SDS011;23498;50.958;3.124;2023-05-29T14:14:05;10.68;;;2.40;;
37655;SDS011;23498;50.958;3.124;2023-05-29T14:16:31;9.45;;;2.60;;
37655;SDS011;23498;50.958;3.124;2023-05-29T14:18:57;11.77;;;2.55;;
37655;SDS011;23498;50.958;3.124;2023-05-29T14:21:23;9.23;;;2.88;;
37655;SDS011;23498;50.958;3.124;2023-05-29T14:23:50;8.63;;;2.50;;
37655;SDS011;23498;50.958;3.124;2023-05-29T14:26:16;8.80;;;2.53;;
37655;SDS011;23498;50.958;3.124;2023-05-29T14:28:42;10.45;;;2.70;;
37655;SDS011;23498;50.958;3.124;2023-05-29T14:31:08;9.43;;;2.20;;
37655;SDS011;23498;50.958;3.124;2023-05-29T14:33:34;9.82;;;2.50;;
37655;SDS011;23498;50.958;3.124;2023-05-29T14:36:01;11.80;;;2.53;;
37655;SDS011;23498;50.958;3.124;2023-05-29T14:38:27;10.45;;;2.60;;
37655;SDS011;23498;50.958;3.124;2023-05-29T14:40:53;13.75;;;3.38;;
37655;SDS011;23498;50.958;3.124;2023-05-29T14:43:19;10.95;;;3.25;;
37655;SDS011;23498;50.958;3.124;2023-05-29T14:45:45;9.90;;;2.90;;
37655;SDS011;23498;50.958;3.124;2023-05-29T14:48:11;11.00;;;3.15;;
37655;SDS011;23498;50.958;3.124;2023-05-29T14:50:37;12.38;;;2.92;;
37655;SDS011;23498;50.958;3.124;2023-05-29T14:53:03;11.00;;;2.67;;
37655;SDS011;23498;50.958;3.124;2023-05-29T14:55:30;12.60;;;3.58;;
37655;SDS011;23498;50.958;3.124;2023-05-29T15:00:28;16.08;;;3.58;;
37655;SDS011;23498;50.958;3.124;2023-05-29T15:02:54;16.77;;;3.83;;
37655;SDS011;23498;50.958;3.124;2023-05-29T15:05:23;16.83;;;3.30;;
37655;SDS011;23498;50.958;3.124;2023-05-29T15:07:49;14.90;;;3.03;;